Time;durP1;ratioP1;P1;durP2;ratioP2;P2;SDS_P1;SDS_P2;PMS_P1;PMS_P2;Temp;Humidity;BMP_temperature;BMP_pressure;BME280_temperature;BME280_humidity;BME280_pressure;Samples;Min_cycle;Max_cycle;Signal;HPM_P1;HPM_P2
2023/06/03 00:01:51;;;;;;;0.88;0.40;;;24.90;43.40;;;;;;6157768;29;20023;-41
2023/06/03 00:04:53;;;;;;;0.60;0.50;;;24.80;43.50;;;;;;6158634;29;20060;-46
2023/06/03 00:07:58;;;;;;;0.47;0.40;;;25.10;43.60;;;;;;6157084;29;20083;-43
2023/06/03 00:10:59;;;;;;;0.57;0.50;;;24.70;42.90;;;;;;6157806;29;20031;-43
2023/06/03 00:14:01;;;;;;;0.68;0.47;;;24.70;43.20;;;;;;6158218;29;20092;-43
2023/06/03 00:17:02;;;;;;;0.68;0.40;;;24.80;43.40;;;;;;6160263;29;20095;-47
2023/06/03 00:20:06;;;;;;;0.50;0.35;;;24.70;43.30;;;;;;6160132;29;20062;-45
2023/06/03 00:23:10;;;;;;;0.77;0.40;;;24.90;43.30;;;;;;6159622;29;20050;-44
2023/06/03 00:26:12;;;;;;;0.90;0.47;;;24.70;43.50;;;;;;6160522;28;20028;-41
2023/06/03 00:29:15;;;;;;;0.50;0.40;;;24.80;43.30;;;;;;6161134;29;20046;-41
2023/06/03 00:32:19;;;;;;;1.15;0.60;;;24.80;43.30;;;;;;6161055;29;20087;-41
2023/06/03 00:35:21;;;;;;;0.80;0.68;;;24.50;43.20;;;;;;6160769;29;20125;-41
2023/06/03 00:38:23;;;;;;;0.93;0.40;;;24.80;43.40;;;;;;6161305;29;20023;-41
2023/06/03 00:41:27;;;;;;;0.65;0.50;;;24.60;43.30;;;;;;6160621;29;20038;-43
2023/06/03 00:44:29;;;;;;;0.65;0.43;;;24.70;43.30;;;;;;6128447;29;20047;-44
2023/06/03 00:47:31;;;;;;;0.45;0.40;;;24.70;43.30;;;;;;6160538;28;20048;-42
2023/06/03 00:50:33;;;;;;;0.60;0.50;;;24.70;43.30;;;;;;6160242;28;20028;-41
2023/06/03 00:53:35;;;;;;;0.70;0.60;;;24.70;43.30;;;;;;6160279;29;20031;-43
2023/06/03 00:56:42;;;;;;;0.70;0.40;;;24.60;43.10;;;;;;6160065;29;20028;-41
2023/06/03 00:59:44;;;;;;;0.73;0.50;;;24.60;43.20;;;;;;6158469;29;20027;-45
2023/06/03 01:02:46;;;;;;;0.68;0.38;;;24.70;43.40;;;;;;6157846;29;20055;-43
2023/06/03 01:05:56;;;;;;;0.85;0.55;;;24.70;43.30;;;;;;6158306;29;20034;-43
2023/06/03 01:09:04;;;;;;;0.57;0.50;;;24.70;43.30;;;;;;6121646;29;20111;-52
2023/06/03 01:12:17;;;;;;;0.77;0.50;;;24.40;43.10;;;;;;6119771;29;20115;-50
2023/06/03 01:15:23;;;;;;;0.77;0.47;;;24.70;43.20;;;;;;6120842;29;20039;-51
2023/06/03 01:18:25;;;;;;;0.70;0.63;;;24.50;43.20;;;;;;6118904;29;20047;-52
2023/06/03 01:25:06;;;;;;;1.15;0.40;;;24.50;42.50;;;;;;6177003;29;20059;-55
2023/06/03 01:28:09;;;;;;;0.65;0.40;;;24.50;43.20;;;;;;6179500;28;20086;-53
2023/06/03 01:31:11;;;;;;;0.80;0.40;;;24.50;43.20;;;;;;6182281;28;20043;-56
2023/06/03 01:34:12;;;;;;;0.75;0.63;;;24.40;43.30;;;;;;6182525;28;20053;-54
2023/06/03 01:37:14;;;;;;;0.75;0.50;;;24.50;42.80;;;;;;6182437;28;20060;-54
2023/06/03 01:40:19;;;;;;;0.52;0.47;;;24.40;43.30;;;;;;6182838;28;20055;-56
2023/06/03 01:43:24;;;;;;;0.90;0.63;;;24.60;43.20;;;;;;6182555;28;20210;-56
2023/06/03 01:46:25;;;;;;;0.50;0.40;;;24.40;43.30;;;;;;6182871;28;20327;-56
2023/06/03 01:49:31;;;;;;;0.85;0.50;;;24.30;43.00;;;;;;6182499;28;20090;-55
2023/06/03 01:52:32;;;;;;;0.60;0.38;;;24.50;43.20;;;;;;6182691;28;20038;-56
2023/06/03 01:55:35;;;;;;;1.00;0.60;;;24.50;43.20;;;;;;6182807;28;20019;-56
2023/06/03 01:58:39;;;;;;;0.70;0.52;;;24.40;43.20;;;;;;6160406;28;20036;-56
2023/06/03 02:01:43;;;;;;;0.50;0.40;;;24.40;43.20;;;;;;6158824;28;20032;-56
2023/06/03 02:04:45;;;;;;;0.30;0.30;;;24.40;43.20;;;;;;6158209;28;20047;-55
2023/06/03 02:07:47;;;;;;;0.70;0.30;;;24.30;43.20;;;;;;6157711;28;20107;-56
2023/06/03 02:10:51;;;;;;;1.08;0.50;;;24.40;43.30;;;;;;6157377;28;20032;-56
2023/06/03 02:13:52;;;;;;;0.98;0.47;;;24.40;43.20;;;;;;6157669;28;20055;-56
2023/06/03 02:16:55;;;;;;;0.82;0.45;;;24.10;43.10;;;;;;6157838;28;20040;-56
2023/06/03 02:19:57;;;;;;;0.85;0.30;;;24.30;43.70;;;;;;6157410;28;20051;-56
2023/06/03 02:23:01;;;;;;;0.82;0.40;;;24.40;43.10;;;;;;6156772;28;20028;-57
2023/06/03 02:26:03;;;;;;;0.82;0.52;;;24.40;43.10;;;;;;6157111;28;20038;-56
2023/06/03 02:29:06;;;;;;;0.63;0.47;;;24.50;43.30;;;;;;6157772;28;20031;-56
2023/06/03 02:32:08;;;;;;;1.30;0.43;;;24.20;43.00;;;;;;6157447;28;20032;-56
2023/06/03 02:35:10;;;;;;;0.40;0.30;;;24.30;43.20;;;;;;6157552;28;20020;-56
2023/06/03 02:38:11;;;;;;;1.20;0.63;;;24.40;43.20;;;;;;6158425;28;20083;-56
2023/06/03 02:41:14;;;;;;;0.95;0.50;;;24.30;43.30;;;;;;6158404;28;20046;-57
2023/06/03 02:44:16;;;;;;;0.60;0.40;;;24.20;43.70;;;;;;6158297;28;20043;-56
2023/06/03 02:47:20;;;;;;;0.65;0.65;;;24.30;43.80;;;;;;6157740;28;20019;-56
2023/06/03 02:50:22;;;;;;;0.63;0.50;;;24.20;43.20;;;;;;6157991;28;20408;-56
2023/06/03 02:53:23;;;;;;;0.60;0.47;;;24.20;43.30;;;;;;6158314;28;20052;-57
2023/06/03 02:56:26;;;;;;;1.15;0.40;;;24.20;43.20;;;;;;6158083;28;20046;-56
2023/06/03 02:59:27;;;;;;;0.70;0.40;;;24.10;43.10;;;;;;6158325;28;20050;-56
2023/06/03 03:02:29;;;;;;;0.82;0.57;;;24.30;43.30;;;;;;6158213;28;20039;-56
2023/06/03 03:05:32;;;;;;;0.95;0.52;;;24.30;43.40;;;;;;6157937;28;20020;-56
2023/06/03 03:08:34;;;;;;;0.65;0.45;;;24.20;43.20;;;;;;6158022;28;20060;-56
2023/06/03 03:11:37;;;;;;;0.75;0.50;;;24.30;43.30;;;;;;6157877;28;20087;-57
2023/06/03 03:14:39;;;;;;;0.50;0.30;;;24.20;43.30;;;;;;6157616;28;20052;-56
2023/06/03 03:17:41;;;;;;;0.63;0.47;;;24.00;43.40;;;;;;6156802;28;20175;-55
2023/06/03 03:20:45;;;;;;;0.90;0.50;;;24.20;43.30;;;;;;6156760;28;20024;-57
2023/06/03 03:23:50;;;;;;;0.52;0.47;;;24.00;43.20;;;;;;6156188;28;20020;-56
2023/06/03 03:26:54;;;;;;;1.00;0.55;;;24.00;43.20;;;;;;6156680;28;20047;-56
2023/06/03 03:29:59;;;;;;;0.82;0.47;;;23.90;43.20;;;;;;6156652;28;20024;-56
2023/06/03 03:33:01;;;;;;;0.52;0.52;;;23.90;43.10;;;;;;6156249;28;20063;-56
2023/06/03 03:36:12;;;;;;;1.17;0.50;;;23.90;43.20;;;;;;6156056;28;20038;-56
2023/06/03 03:39:15;;;;;;;1.05;0.50;;;23.30;42.80;;;;;;6156544;28;20040;-56
2023/06/03 03:42:23;;;;;;;0.93;0.52;;;24.20;43.40;;;;;;6156446;28;20039;-56
2023/06/03 03:45:29;;;;;;;0.35;0.35;;;24.10;43.30;;;;;;6156676;28;20034;-56
2023/06/03 03:48:30;;;;;;;0.60;0.40;;;24.00;43.20;;;;;;6157398;28;20048;-56
2023/06/03 03:51:35;;;;;;;1.00;0.65;;;24.10;43.30;;;;;;6157425;28;20023;-56
2023/06/03 03:54:37;;;;;;;0.55;0.40;;;23.90;43.30;;;;;;6156844;28;20071;-54
2023/06/03 03:57:46;;;;;;;0.50;0.43;;;24.00;43.30;;;;;;6157000;28;20075;-54
2023/06/03 04:00:48;;;;;;;0.40;0.30;;;23.60;43.10;;;;;;6157216;28;20059;-56
2023/06/03 04:03:54;;;;;;;0.52;0.38;;;24.10;44.00;;;;;;6157389;28;20023;-56
2023/06/03 04:06:57;;;;;;;0.52;0.40;;;23.90;43.10;;;;;;6157302;28;20030;-56
2023/06/03 04:09:58;;;;;;;0.35;0.28;;;24.00;43.40;;;;;;6157144;28;20047;-56
2023/06/03 04:13:06;;;;;;;0.70;0.40;;;24.00;43.40;;;;;;6157211;28;20032;-57
2023/06/03 04:16:10;;;;;;;0.50;0.30;;;23.90;43.30;;;;;;6157021;28;20046;-57
2023/06/03 04:19:16;;;;;;;0.45;0.30;;;23.90;43.20;;;;;;6156984;28;20043;-56
2023/06/03 04:22:20;;;;;;;0.95;0.60;;;23.80;43.30;;;;;;6156798;28;20053;-56
2023/06/03 04:25:23;;;;;;;0.88;0.38;;;23.80;43.30;;;;;;6157168;28;20055;-56
2023/06/03 04:28:31;;;;;;;0.80;0.50;;;23.70;43.20;;;;;;6156557;28;20016;-57
2023/06/03 04:31:33;;;;;;;0.57;0.38;;;24.10;43.60;;;;;;6156425;28;20034;-56
2023/06/03 04:34:36;;;;;;;0.52;0.30;;;23.70;43.40;;;;;;6156340;28;20036;-57
2023/06/03 04:37:38;;;;;;;0.77;0.47;;;23.90;43.60;;;;;;6156805;28;20024;-56
2023/06/03 04:40:45;;;;;;;0.38;0.38;;;23.90;43.40;;;;;;6156261;28;20023;-56
2023/06/03 04:43:52;;;;;;;0.60;0.30;;;23.80;43.40;;;;;;6156294;28;20040;-52
2023/06/03 04:46:54;;;;;;;0.60;0.50;;;23.80;43.40;;;;;;6119031;29;20044;-53
2023/06/03 04:49:58;;;;;;;0.70;0.52;;;23.90;43.60;;;;;;6121391;29;20048;-52
2023/06/03 04:52:59;;;;;;;0.80;0.50;;;23.80;43.60;;;;;;6121125;29;20521;-52
2023/06/03 04:56:02;;;;;;;0.57;0.50;;;23.60;43.60;;;;;;6119847;29;20036;-53
2023/06/03 04:59:05;;;;;;;0.70;0.50;;;23.70;43.50;;;;;;6119715;29;20036;-52
2023/06/03 05:02:16;;;;;;;1.03;0.60;;;23.80;43.60;;;;;;6088453;29;20114;-51
2023/06/03 05:05:19;;;;;;;0.70;0.55;;;23.50;43.60;;;;;;6120982;29;20094;-54
2023/06/03 05:08:21;;;;;;;0.35;0.30;;;23.80;43.80;;;;;;6120897;29;20115;-52
2023/06/03 05:11:28;;;;;;;1.05;0.40;;;23.60;44.10;;;;;;6120098;29;20043;-54
2023/06/03 05:14:31;;;;;;;0.90;0.40;;;23.40;42.10;;;;;;6119675;29;20055;-54
2023/06/03 05:17:32;;;;;;;1.05;0.65;;;23.70;43.60;;;;;;6120335;29;20047;-51
2023/06/03 05:20:34;;;;;;;0.73;0.43;;;23.80;43.90;;;;;;6120380;29;20059;-54
2023/06/03 05:23:37;;;;;;;1.13;0.50;;;23.90;44.00;;;;;;6119845;29;20103;-52
2023/06/03 05:26:39;;;;;;;0.60;0.50;;;23.80;44.00;;;;;;6120494;29;20047;-53
2023/06/03 05:29:42;;;;;;;0.52;0.43;;;23.70;43.80;;;;;;6120398;29;20043;-54
2023/06/03 05:32:44;;;;;;;0.63;0.40;;;23.90;44.00;;;;;;6120282;29;20067;-51
2023/06/03 05:35:46;;;;;;;1.17;0.52;;;23.30;43.70;;;;;;6120123;29;20599;-54
2023/06/03 05:38:48;;;;;;;0.65;0.50;;;23.70;43.90;;;;;;6119637;29;20348;-52
2023/06/03 05:41:50;;;;;;;0.70;0.43;;;23.40;43.70;;;;;;6119652;29;20043;-53
2023/06/03 05:44:53;;;;;;;0.90;0.30;;;23.60;44.00;;;;;;6118686;29;20499;-52
2023/06/03 05:47:55;;;;;;;0.82;0.68;;;23.70;43.90;;;;;;6118621;29;20103;-54
2023/06/03 05:50:57;;;;;;;0.60;0.43;;;23.40;43.80;;;;;;6118758;29;20588;-53
2023/06/03 05:54:04;;;;;;;1.05;0.60;;;23.40;43.90;;;;;;6119465;29;20035;-55
2023/06/03 05:57:07;;;;;;;0.47;0.32;;;23.60;44.00;;;;;;6119707;29;20055;-51
2023/06/03 06:00:10;;;;;;;1.08;0.63;;;23.60;44.10;;;;;;6117842;29;20036;-54
2023/06/03 06:03:16;;;;;;;0.60;0.50;;;23.60;43.80;;;;;;6118653;29;20047;-51
2023/06/03 06:06:18;;;;;;;0.50;0.50;;;23.70;44.20;;;;;;6116941;29;20107;-53
2023/06/03 06:09:20;;;;;;;0.70;0.40;;;23.60;44.30;;;;;;6116797;29;20140;-52
2023/06/03 06:12:21;;;;;;;0.55;0.43;;;23.70;44.20;;;;;;6118674;29;20063;-52
2023/06/03 06:15:23;;;;;;;0.50;0.50;;;23.40;44.30;;;;;;6118034;29;20071;-52
2023/06/03 06:18:25;;;;;;;0.50;0.45;;;23.60;44.30;;;;;;6117774;29;20052;-54
2023/06/03 06:21:27;;;;;;;0.88;0.70;;;23.60;44.40;;;;;;6117605;29;20047;-54
2023/06/03 06:24:29;;;;;;;0.40;0.40;;;23.60;44.50;;;;;;6117772;29;20032;-53
2023/06/03 06:27:31;;;;;;;0.95;0.50;;;23.60;44.60;;;;;;6118072;29;20035;-51
2023/06/03 06:30:34;;;;;;;0.65;0.38;;;23.60;44.30;;;;;;6117727;29;20126;-52
2023/06/03 06:33:38;;;;;;;0.57;0.40;;;23.60;44.60;;;;;;6117704;29;20040;-52
2023/06/03 06:36:46;;;;;;;0.98;0.60;;;23.50;44.50;;;;;;6118124;29;20043;-53
2023/06/03 06:39:54;;;;;;;1.15;0.70;;;23.60;44.50;;;;;;6116497;29;20075;-53
2023/06/03 06:43:02;;;;;;;0.93;0.70;;;23.70;44.70;;;;;;6116037;29;20047;-53
2023/06/03 06:46:13;;;;;;;1.65;0.80;;;23.60;44.70;;;;;;6115856;29;20458;-53
2023/06/03 06:49:15;;;;;;;0.85;0.75;;;23.40;44.50;;;;;;6117300;29;20586;-50
2023/06/03 06:52:19;;;;;;;0.68;0.63;;;23.80;44.90;;;;;;6117665;29;20273;-52
2023/06/03 06:55:39;;;;;;;1.10;0.63;;;23.60;44.80;;;;;;6117657;29;20039;-54
2023/06/03 06:58:41;;;;;;;1.20;0.60;;;23.70;44.80;;;;;;6117032;29;20055;-52
2023/06/03 07:01:46;;;;;;;1.13;0.50;;;24.70;45.40;;;;;;6118074;29;20044;-54
2023/06/03 07:04:51;;;;;;;0.93;0.70;;;23.60;44.90;;;;;;6117315;29;20054;-52
2023/06/03 07:07:54;;;;;;;0.60;0.60;;;23.80;44.80;;;;;;6117366;29;20031;-53
2023/06/03 07:10:59;;;;;;;0.70;0.70;;;23.60;45.00;;;;;;6148936;23;20127;-90
2023/06/03 07:14:04;;;;;;;1.02;0.80;;;23.30;44.80;;;;;;6106939;29;20043;-91
2023/06/03 07:17:07;;;;;;;0.60;0.57;;;22.30;45.60;;;;;;6123859;29;20048;-91
2023/06/03 07:20:19;;;;;;;0.90;0.70;;;23.50;45.00;;;;;;6114814;29;20052;-90
2023/06/03 07:23:24;;;;;;;0.93;0.80;;;23.30;45.00;;;;;;6091180;29;20100;-89
2023/06/03 07:26:28;;;;;;;0.90;0.63;;;23.90;45.20;;;;;;6107086;29;20115;-89
2023/06/03 07:29:38;;;;;;;1.52;0.77;;;23.30;45.20;;;;;;6093180;29;20047;-90
2023/06/03 07:32:44;;;;;;;0.90;0.80;;;23.20;45.10;;;;;;6110017;29;20361;-89
2023/06/03 07:35:50;;;;;;;1.05;0.80;;;20.30;45.30;;;;;;6112180;29;20051;-89
2023/06/03 07:38:57;;;;;;;1.05;0.75;;;24.50;46.00;;;;;;6111212;29;20048;-89
2023/06/03 07:42:00;;;;;;;0.60;0.60;;;20.10;43.40;;;;;;6108131;29;20071;-90
2023/06/03 07:45:15;;;;;;;0.98;0.80;;;25.90;47.70;;;;;;6108580;29;20044;-90
2023/06/03 07:48:23;;;;;;;0.80;0.80;;;22.30;45.40;;;;;;6100742;29;20047;-90
2023/06/03 07:51:24;;;;;;;1.13;0.85;;;23.20;45.30;;;;;;6106416;29;20076;-89
2023/06/03 07:54:28;;;;;;;1.40;1.00;;;24.00;47.10;;;;;;6108331;29;20131;-89
2023/06/03 07:57:39;;;;;;;0.80;0.80;;;22.10;45.20;;;;;;6108531;29;20072;-90
2023/06/03 08:00:45;;;;;;;1.02;0.90;;;24.30;45.70;;;;;;6107298;29;20563;-90
2023/06/03 08:03:47;;;;;;;1.20;0.93;;;23.40;45.50;;;;;;6107943;29;20085;-90
2023/06/03 08:06:52;;;;;;;0.85;0.70;;;22.70;46.20;;;;;;6110898;29;20040;-90
2023/06/03 08:09:56;;;;;;;1.23;0.85;;;23.70;46.30;;;;;;6112829;29;20032;-89
2023/06/03 08:12:58;;;;;;;0.90;0.80;;;26.90;48.40;;;;;;6110331;29;20362;-90
2023/06/03 08:16:00;;;;;;;1.05;0.90;;;23.10;45.90;;;;;;6111357;29;20139;-89
2023/06/03 08:19:06;;;;;;;0.85;0.73;;;23.50;46.20;;;;;;6097713;29;20040;-90
2023/06/03 08:22:27;;;;;;;1.20;1.10;;;22.70;46.40;;;;;;6115990;29;20052;-90
2023/06/03 08:25:29;;;;;;;0.90;0.80;;;23.90;45.70;;;;;;6135134;29;20048;-89
2023/06/03 08:28:32;;;;;;;1.63;1.10;;;23.60;45.80;;;;;;6118210;29;20044;-90
2023/06/03 08:31:33;;;;;;;1.10;1.00;;;22.20;46.40;;;;;;6124813;29;20044;-90
2023/06/03 08:34:36;;;;;;;1.20;1.10;;;22.50;45.90;;;;;;6122790;29;20120;-90
2023/06/03 08:37:38;;;;;;;1.15;1.02;;;22.20;45.90;;;;;;6119954;29;20044;-90
2023/06/03 08:40:48;;;;;;;1.05;0.95;;;23.40;45.80;;;;;;6116503;29;20059;-90
2023/06/03 08:43:51;;;;;;;2.05;1.02;;;23.40;45.80;;;;;;6085849;29;20404;-90
2023/06/03 08:47:00;;;;;;;1.40;1.00;;;23.80;46.10;;;;;;6103372;29;20055;-90
2023/06/03 08:50:06;;;;;;;1.02;0.90;;;23.60;46.00;;;;;;6118442;29;20048;-89
2023/06/03 08:53:11;;;;;;;0.93;0.90;;;20.20;44.30;;;;;;6113902;29;20055;-90
2023/06/03 08:56:16;;;;;;;1.00;0.85;;;24.70;47.10;;;;;;6098916;29;20048;-90
2023/06/03 08:59:20;;;;;;;1.42;1.05;;;24.80;46.70;;;;;;6114325;29;20044;-91
2023/06/03 09:02:22;;;;;;;0.95;0.80;;;23.70;46.30;;;;;;6083853;29;20478;-89
2023/06/03 09:05:25;;;;;;;1.13;1.02;;;23.40;46.10;;;;;;6113394;29;20071;-90
2023/06/03 09:08:28;;;;;;;1.00;0.90;;;22.90;46.30;;;;;;6114239;29;20065;-89
2023/06/03 09:11:30;;;;;;;0.80;0.80;;;25.80;47.70;;;;;;6114376;29;20064;-89
2023/06/03 09:14:32;;;;;;;0.90;0.90;;;22.40;46.10;;;;;;6114089;29;20048;-90
2023/06/03 09:17:37;;;;;;;1.25;1.10;;;21.70;45.50;;;;;;6112064;29;20079;-90
2023/06/03 09:20:39;;;;;;;1.35;1.08;;;22.30;46.80;;;;;;6113843;29;20175;-89
2023/06/03 09:23:41;;;;;;;1.10;1.00;;;23.10;47.20;;;;;;6112305;29;20056;-90
2023/06/03 09:26:43;;;;;;;1.10;0.90;;;24.10;46.80;;;;;;6112007;29;20111;-84
2023/06/03 09:29:45;;;;;;;1.02;0.90;;;23.60;47.40;;;;;;6119956;29;20051;-87
2023/06/03 09:32:47;;;;;;;1.08;1.00;;;20.70;46.00;;;;;;6117199;29;20036;-88
2023/06/03 09:36:07;;;;;;;0.85;0.82;;;24.10;47.20;;;;;;6116587;29;20044;-88
2023/06/03 09:39:10;;;;;;;1.23;1.05;;;22.90;45.50;;;;;;6116899;29;20043;-87
2023/06/03 09:42:12;;;;;;;1.55;0.98;;;24.40;46.80;;;;;;6117608;29;20076;-88
2023/06/03 09:45:23;;;;;;;1.02;0.93;;;24.00;47.40;;;;;;6117358;29;20051;-88
2023/06/03 09:48:25;;;;;;;;;;;23.50;45.70;;;;;;6116564;29;20532;-88
2023/06/03 09:51:40;;;;;;;1.35;1.10;;;23.30;47.10;;;;;;6116798;29;19933;-87
2023/06/03 09:54:42;;;;;;;1.17;1.08;;;23.90;59.20;;;;;;6099799;29;20052;-88
2023/06/03 09:58:02;;;;;;;1.30;1.05;;;23.90;47.00;;;;;;6114960;29;20052;-87
2023/06/03 10:01:04;;;;;;;1.40;1.30;;;23.90;45.90;;;;;;6116398;29;20040;-87
2023/06/03 10:04:09;;;;;;;1.10;1.00;;;23.70;46.70;;;;;;6120150;29;20048;-87
2023/06/03 10:07:13;;;;;;;1.30;1.20;;;23.90;46.20;;;;;;6103773;29;20036;-87
2023/06/03 10:10:14;;;;;;;1.52;1.30;;;22.60;45.50;;;;;;6099762;29;20055;-87
2023/06/03 10:13:18;;;;;;;2.08;1.40;;;24.00;47.00;;;;;;6114174;29;20362;-88
2023/06/03 10:16:20;;;;;;;1.30;1.20;;;23.80;45.90;;;;;;6115597;29;20103;-88
2023/06/03 10:19:22;;;;;;;1.10;1.00;;;24.00;46.70;;;;;;6114539;29;20119;-88
2023/06/03 10:22:26;;;;;;;1.95;1.58;;;24.00;46.60;;;;;;6114846;29;20134;-87
2023/06/03 10:25:30;;;;;;;1.50;1.40;;;23.60;45.70;;;;;;6115043;29;20036;-87
2023/06/03 10:28:35;;;;;;;1.42;1.20;;;23.90;45.80;;;;;;6114319;29;20040;-87
2023/06/03 10:31:39;;;;;;;1.30;1.20;;;24.10;45.90;;;;;;6114060;29;20063;-88
2023/06/03 10:34:42;;;;;;;1.35;1.25;;;23.40;46.00;;;;;;6112534;29;20075;-87
2023/06/03 10:37:47;;;;;;;1.23;1.13;;;22.90;45.30;;;;;;6098129;29;20048;-88
2023/06/03 10:40:50;;;;;;;1.83;1.52;;;23.70;45.60;;;;;;6113425;29;20455;-87
2023/06/03 10:43:51;;;;;;;1.30;1.10;;;24.50;46.70;;;;;;6097378;29;20083;-88
2023/06/03 10:47:04;;;;;;;1.42;1.15;;;22.80;45.60;;;;;;6113580;29;20266;-87
2023/06/03 10:50:15;;;;;;;1.60;1.30;;;24.40;45.00;;;;;;6112084;29;20084;-88
2023/06/03 10:53:37;;;;;;;1.23;1.13;;;24.20;45.60;;;;;;6113369;29;20075;-88
2023/06/03 10:56:47;;;;;;;1.73;1.35;;;26.10;46.60;;;;;;6113788;29;20040;-88
2023/06/03 10:59:48;;;;;;;1.60;1.30;;;24.10;45.70;;;;;;6114876;29;20040;-88
2023/06/03 11:03:03;;;;;;;1.10;1.00;;;22.60;45.60;;;;;;6114999;29;20036;-88
2023/06/03 11:06:32;;;;;;;1.35;1.00;;;24.10;45.90;;;;;;6114943;29;20051;-88
2023/06/03 11:09:37;;;;;;;1.25;1.15;;;25.70;46.20;;;;;;6113072;29;20045;-87
2023/06/03 11:12:48;;;;;;;1.70;1.00;;;24.00;45.40;;;;;;6112785;29;20048;-87
2023/06/03 11:15:58;;;;;;;1.23;1.10;;;23.70;45.30;;;;;;6114616;29;20040;-88
2023/06/03 11:19:29;;;;;;;1.20;1.10;;;23.40;45.20;;;;;;6114423;29;20055;-88
2023/06/03 11:22:39;;;;;;;;;;;25.80;46.20;;;;;;6104387;29;20040;-88
2023/06/03 11:25:41;;;;;;;1.20;1.10;;;24.30;45.50;;;;;;6115970;29;19923;-88
2023/06/03 11:28:43;;;;;;;1.33;1.23;;;23.80;45.90;;;;;;6115425;29;20051;-87
2023/06/03 11:31:44;;;;;;;1.40;1.30;;;23.30;45.50;;;;;;6114622;29;20048;-88
2023/06/03 11:34:47;;;;;;;1.58;1.20;;;23.10;45.50;;;;;;6114832;29;20187;-88
2023/06/03 11:37:52;;;;;;;1.10;1.00;;;23.60;45.00;;;;;;6115408;29;20116;-87
2023/06/03 11:40:54;;;;;;;1.40;1.30;;;26.30;46.50;;;;;;6117543;29;20044;-88
2023/06/03 11:44:20;;;;;;;1.20;1.10;;;24.30;46.40;;;;;;6115952;29;20044;-88
2023/06/03 11:47:48;;;;;;;1.40;1.30;;;26.60;46.50;;;;;;6104511;29;20052;-88
2023/06/03 11:50:53;;;;;;;1.10;1.00;;;24.00;44.80;;;;;;6102871;29;20040;-88
2023/06/03 11:53:55;;;;;;;1.45;1.17;;;25.00;45.60;;;;;;6100907;29;20075;-88
2023/06/03 11:56:59;;;;;;;1.38;1.27;;;24.50;46.00;;;;;;6118730;29;20068;-88
2023/06/03 12:00:09;;;;;;;1.38;1.25;;;24.20;45.70;;;;;;6121156;29;20060;-88
2023/06/03 12:03:14;;;;;;;1.45;1.35;;;24.50;45.10;;;;;;6121989;29;20111;-88
2023/06/03 12:06:16;;;;;;;1.45;1.20;;;24.80;45.40;;;;;;6104930;29;20150;-88
2023/06/03 12:09:19;;;;;;;1.30;1.10;;;24.50;46.10;;;;;;6119160;29;20040;-88
2023/06/03 12:12:23;;;;;;;1.00;0.85;;;23.70;44.80;;;;;;6119488;29;20120;-88
2023/06/03 12:15:25;;;;;;;1.02;0.93;;;24.50;45.60;;;;;;6120177;29;20048;-87
2023/06/03 12:18:29;;;;;;;1.08;0.98;;;24.30;45.00;;;;;;6104215;29;20364;-88
2023/06/03 12:21:36;;;;;;;1.17;1.08;;;23.40;45.00;;;;;;6119774;29;20603;-88
2023/06/03 12:24:41;;;;;;;1.20;1.10;;;24.70;45.20;;;;;;6119691;29;20043;-88
2023/06/03 12:27:44;;;;;;;1.30;1.20;;;24.50;44.80;;;;;;6104682;29;20059;-88
2023/06/03 12:30:46;;;;;;;1.70;1.20;;;24.60;45.70;;;;;;6119183;29;20048;-88
2023/06/03 12:33:47;;;;;;;1.33;1.10;;;24.10;45.10;;;;;;6119393;29;20059;-88
2023/06/03 12:36:50;;;;;;;1.05;0.85;;;23.40;45.00;;;;;;6121049;29;20043;-88
2023/06/03 12:39:51;;;;;;;0.90;0.80;;;24.50;45.60;;;;;;6120025;29;20080;-88
2023/06/03 12:42:56;;;;;;;0.95;0.88;;;24.70;45.40;;;;;;6119424;29;20136;-88
2023/06/03 12:46:14;;;;;;;1.83;0.95;;;24.50;45.00;;;;;;6118943;29;20048;-88
2023/06/03 12:49:16;;;;;;;1.35;1.25;;;24.80;44.50;;;;;;6119556;29;20041;-88
2023/06/03 12:52:19;;;;;;;1.17;1.00;;;24.70;45.10;;;;;;6123869;29;20044;-88
2023/06/03 12:55:26;;;;;;;1.40;1.30;;;23.70;44.10;;;;;;6124221;29;20071;-88
2023/06/03 12:58:28;;;;;;;1.45;1.25;;;24.50;45.60;;;;;;6124942;29;20059;-88
2023/06/03 13:01:30;;;;;;;1.50;1.40;;;23.70;44.50;;;;;;6126676;29;20036;-88
2023/06/03 13:04:33;;;;;;;1.35;1.15;;;25.60;45.60;;;;;;6125962;29;20062;-88
2023/06/03 13:07:36;;;;;;;1.42;1.25;;;24.70;44.20;;;;;;6126176;29;20056;-88
2023/06/03 13:10:38;;;;;;;1.27;1.17;;;23.90;43.80;;;;;;6125404;29;20089;-88
2023/06/03 13:13:40;;;;;;;1.17;1.08;;;24.90;44.60;;;;;;6125211;29;20048;-88
2023/06/03 13:16:42;;;;;;;1.33;1.08;;;24.50;45.50;;;;;;6126552;29;20048;-88
2023/06/03 13:19:43;;;;;;;1.75;1.40;;;24.80;44.60;;;;;;6127119;29;20048;-87
2023/06/03 13:22:45;;;;;;;1.45;1.25;;;24.30;44.50;;;;;;6125921;29;20048;-88
2023/06/03 13:25:47;;;;;;;1.30;1.20;;;23.70;45.00;;;;;;6126165;29;20048;-88
2023/06/03 13:28:50;;;;;;;1.30;1.20;;;24.80;45.00;;;;;;6125359;29;20048;-88
2023/06/03 13:31:51;;;;;;;1.13;1.00;;;24.90;45.20;;;;;;6124377;29;20055;-88
2023/06/03 13:34:53;;;;;;;1.00;0.90;;;21.80;43.50;;;;;;6124150;29;20051;-88
2023/06/03 13:37:55;;;;;;;1.33;1.10;;;25.20;44.40;;;;;;6110238;29;20060;-88
2023/06/03 13:40:57;;;;;;;2.35;1.13;;;25.00;44.40;;;;;;6124293;29;20099;-88
2023/06/03 13:44:00;;;;;;;1.13;1.02;;;25.00;45.50;;;;;;6124607;29;20267;-88
2023/06/03 13:47:04;;;;;;;1.52;1.23;;;25.10;44.90;;;;;;6125344;29;20050;-88
2023/06/03 13:50:07;;;;;;;1.13;1.00;;;25.10;44.00;;;;;;6125070;29;20048;-88
2023/06/03 13:53:09;;;;;;;1.05;0.95;;;23.50;43.40;;;;;;6125400;29;20058;-88
2023/06/03 13:56:11;;;;;;;1.10;1.00;;;24.70;44.40;;;;;;6124263;29;20048;-88
2023/06/03 13:59:13;;;;;;;1.13;1.02;;;23.20;43.40;;;;;;6124787;29;20069;-88
2023/06/03 14:02:15;;;;;;;1.30;1.17;;;25.10;44.20;;;;;;6125832;29;20035;-88
2023/06/03 14:05:20;;;;;;;1.20;1.00;;;22.70;43.90;;;;;;6072269;29;20044;-88
2023/06/03 14:08:22;;;;;;;1.15;1.05;;;25.10;44.30;;;;;;6061027;29;20196;-88
2023/06/03 14:11:25;;;;;;;1.30;1.20;;;24.90;44.40;;;;;;6060005;29;20085;-88
2023/06/03 14:14:27;;;;;;;1.40;0.98;;;24.10;44.00;;;;;;6060277;29;20055;-88
2023/06/03 14:17:28;;;;;;;1.00;0.88;;;24.60;44.80;;;;;;6061499;29;20045;-88
2023/06/03 14:20:30;;;;;;;1.00;0.90;;;25.40;45.50;;;;;;6062837;29;20049;-88
2023/06/03 14:23:32;;;;;;;1.20;1.10;;;24.40;43.90;;;;;;6047633;29;20053;-88
2023/06/03 14:26:35;;;;;;;1.13;1.02;;;24.90;43.80;;;;;;6062435;29;20037;-88
2023/06/03 14:29:41;;;;;;;1.48;1.17;;;24.30;43.50;;;;;;6061439;29;20069;-88
2023/06/03 14:32:42;;;;;;;1.42;1.33;;;25.10;44.50;;;;;;6061870;29;20064;-88
2023/06/03 14:35:45;;;;;;;1.45;1.35;;;24.70;44.40;;;;;;6097599;29;20056;-88
2023/06/03 14:38:46;;;;;;;1.50;1.20;;;25.90;45.10;;;;;;6126407;29;20052;-88
2023/06/03 14:41:48;;;;;;;1.13;1.00;;;27.60;46.30;;;;;;6125749;29;20048;-88
2023/06/03 14:44:51;;;;;;;1.20;1.10;;;24.90;44.50;;;;;;6126358;29;20074;-88
2023/06/03 14:48:02;;;;;;;1.38;1.25;;;25.10;44.20;;;;;;6126872;29;20047;-88
2023/06/03 14:51:05;;;;;;;1.35;1.25;;;24.40;44.30;;;;;;6126524;29;20097;-88
2023/06/03 14:54:10;;;;;;;1.25;1.15;;;24.50;44.00;;;;;;6126346;29;20062;-88
2023/06/03 14:57:12;;;;;;;1.45;1.35;;;25.40;43.40;;;;;;6124983;29;20036;-88
2023/06/03 15:00:15;;;;;;;0.88;0.80;;;25.30;44.70;;;;;;6126133;29;20044;-88
2023/06/03 15:03:20;;;;;;;1.33;1.00;;;24.60;44.10;;;;;;6125162;29;20151;-88
2023/06/03 15:06:22;;;;;;;1.20;0.98;;;25.50;44.50;;;;;;6125560;29;20024;-88
2023/06/03 15:09:23;;;;;;;1.48;1.10;;;26.00;44.90;;;;;;6126158;29;20032;-88
2023/06/03 15:12:25;;;;;;;1.10;1.00;;;25.50;44.60;;;;;;6124420;29;20060;-88
2023/06/03 15:15:27;;;;;;;1.35;1.00;;;26.00;44.90;;;;;;6126083;29;20039;-88
2023/06/03 15:18:29;;;;;;;1.20;1.10;;;25.20;44.50;;;;;;6127351;29;20255;-87
2023/06/03 15:21:31;;;;;;;1.38;1.27;;;25.30;44.60;;;;;;6125450;29;20076;-89
2023/06/03 15:24:33;;;;;;;1.48;1.00;;;25.00;44.20;;;;;;6126377;29;20051;-88
2023/06/03 15:27:34;;;;;;;1.23;1.13;;;23.50;43.40;;;;;;6110888;29;20048;-89
2023/06/03 15:30:37;;;;;;;1.10;1.00;;;25.20;44.20;;;;;;6125984;29;20040;-89
2023/06/03 15:33:39;;;;;;;1.58;1.30;;;24.90;44.00;;;;;;6125367;29;20083;-89
2023/06/03 15:36:43;;;;;;;1.30;1.00;;;24.40;44.50;;;;;;6126160;29;20033;-88
2023/06/03 15:39:45;;;;;;;1.88;1.58;;;25.10;44.40;;;;;;6125657;29;20040;-88
2023/06/03 15:42:48;;;;;;;1.23;1.02;;;26.00;45.20;;;;;;6125821;29;20072;-88
2023/06/03 15:45:50;;;;;;;1.25;1.10;;;24.50;44.00;;;;;;6124737;29;20059;-88
2023/06/03 15:48:52;;;;;;;1.67;1.10;;;24.60;44.40;;;;;;6126563;29;20092;-88
2023/06/03 15:51:54;;;;;;;1.55;1.20;;;25.50;44.40;;;;;;6125287;29;20052;-88
2023/06/03 15:54:57;;;;;;;1.08;0.98;;;23.70;42.80;;;;;;6125402;29;20059;-88
2023/06/03 15:57:58;;;;;;;1.17;1.08;;;25.30;44.20;;;;;;6125279;29;20108;-88
2023/06/03 16:01:01;;;;;;;1.05;0.90;;;25.40;44.60;;;;;;6125197;29;20040;-88
2023/06/03 16:04:06;;;;;;;1.55;1.08;;;22.60;43.10;;;;;;6125928;29;20048;-88